EGNJ METAR and TAF | Updated Today

EGNJ METAR

Humberside Airport

Observation time: 12 min. ago

EGNJ 292020Z 35003KT 330V050 9999 NCD 11/11 Q1010

Need help? Read our tutorial on how to read METARs or read the parsed version below.

Humberside Airport (EGNJ) METAR

  • Weather conditions on Thu, 29 Sep 2022 20:20:00 +0000 (12 min. ago):
  • Present conditions: Dry
  • Clouds: Nil cloud detected
  • Visibility: Greater than 10 km
  • Wind: 350 degrees at 3 knots
  • Temperature: 11 celsius
  • Dew point: 11 celsius
  • Pressure: 1010 millibars
  • Remarks: None


Useful to know...

EGNJ TAF

Humberside Airport

TAF EGNJ 291657Z 2918/3003 03012KT 9999 SCT020 PROB30 2923/3003 8000
Observation time: 3:35 hr. ago
Need help? Read our tutorial on how to read TAFs or read the parsed version below.

Parsed version of TAF for Humberside Airport (EGNJ)

  • From 29 September at 18:00 UTC, to day 30 of the month at 03:00 UTC
  • Clouds: Scattered at 610 meters
  • Visibility: Greater than 10 km
  • Wind: 30 degrees at 12
  • From 29 September at 23:00 UTC, to day 30 of the month at 03:00 UTC
    Probability of 30%
  • Visibility: 8000 meters